sensor_id;sensor_type;location;lat;lon;timestamp;P1;durP1;ratioP1;P2;durP2;ratioP2
66169;SDS011;66757;44.024;20.456;2023-05-07T00:00:37;20.90;;;11.45;;
66169;SDS011;66757;44.024;20.456;2023-05-07T00:03:03;21.00;;;11.20;;
66169;SDS011;66757;44.024;20.456;2023-05-07T00:05:28;18.90;;;10.45;;
66169;SDS011;66757;44.024;20.456;2023-05-07T00:07:54;20.50;;;11.98;;
66169;SDS011;66757;44.024;20.456;2023-05-07T00:10:19;23.00;;;12.80;;
66169;SDS011;66757;44.024;20.456;2023-05-07T00:12:46;21.00;;;12.48;;
66169;SDS011;66757;44.024;20.456;2023-05-07T00:15:11;20.77;;;12.00;;
66169;SDS011;66757;44.024;20.456;2023-05-07T00:17:37;21.08;;;11.13;;
66169;SDS011;66757;44.024;20.456;2023-05-07T00:20:03;19.55;;;9.35;;
66169;SDS011;66757;44.024;20.456;2023-05-07T00:22:30;17.15;;;10.55;;
66169;SDS011;66757;44.024;20.456;2023-05-07T00:24:56;20.58;;;11.43;;
66169;SDS011;66757;44.024;20.456;2023-05-07T00:27:21;18.65;;;10.75;;
66169;SDS011;66757;44.024;20.456;2023-05-07T00:29:47;14.85;;;9.55;;
66169;SDS011;66757;44.024;20.456;2023-05-07T00:32:13;14.25;;;8.43;;
66169;SDS011;66757;44.024;20.456;2023-05-07T00:34:38;9.38;;;6.38;;
66169;SDS011;66757;44.024;20.456;2023-05-07T00:37:04;7.65;;;5.68;;
66169;SDS011;66757;44.024;20.456;2023-05-07T00:39:34;9.88;;;6.57;;
66169;SDS011;66757;44.024;20.456;2023-05-07T00:42:00;14.00;;;6.72;;
66169;SDS011;66757;44.024;20.456;2023-05-07T00:44:26;10.02;;;6.15;;
66169;SDS011;66757;44.024;20.456;2023-05-07T00:46:53;8.88;;;5.93;;
66169;SDS011;66757;44.024;20.456;2023-05-07T00:49:19;7.65;;;5.30;;
66169;SDS011;66757;44.024;20.456;2023-05-07T00:51:45;9.15;;;5.32;;
66169;SDS011;66757;44.024;20.456;2023-05-07T00:54:11;8.73;;;5.07;;
66169;SDS011;66757;44.024;20.456;2023-05-07T00:56:37;7.68;;;5.32;;
66169;SDS011;66757;44.024;20.456;2023-05-07T00:59:04;8.20;;;4.30;;
66169;SDS011;66757;44.024;20.456;2023-05-07T01:01:31;7.20;;;5.00;;
66169;SDS011;66757;44.024;20.456;2023-05-07T01:03:57;9.32;;;5.10;;
66169;SDS011;66757;44.024;20.456;2023-05-07T01:06:23;8.45;;;4.50;;
66169;SDS011;66757;44.024;20.456;2023-05-07T01:08:50;8.80;;;5.63;;
66169;SDS011;66757;44.024;20.456;2023-05-07T01:11:18;8.57;;;5.38;;
66169;SDS011;66757;44.024;20.456;2023-05-07T01:13:45;9.88;;;5.32;;
66169;SDS011;66757;44.024;20.456;2023-05-07T01:16:12;10.60;;;5.72;;
66169;SDS011;66757;44.024;20.456;2023-05-07T01:18:37;7.97;;;5.50;;
66169;SDS011;66757;44.024;20.456;2023-05-07T01:21:04;13.18;;;5.35;;
66169;SDS011;66757;44.024;20.456;2023-05-07T01:23:30;9.68;;;5.38;;
66169;SDS011;66757;44.024;20.456;2023-05-07T01:25:55;8.02;;;5.45;;
66169;SDS011;66757;44.024;20.456;2023-05-07T01:28:21;6.88;;;5.00;;
66169;SDS011;66757;44.024;20.456;2023-05-07T01:30:48;8.90;;;4.70;;
66169;SDS011;66757;44.024;20.456;2023-05-07T01:33:18;9.98;;;5.43;;
66169;SDS011;66757;44.024;20.456;2023-05-07T01:35:51;12.02;;;7.70;;
66169;SDS011;66757;44.024;20.456;2023-05-07T01:38:20;13.82;;;8.07;;
66169;SDS011;66757;44.024;20.456;2023-05-07T01:40:47;16.10;;;8.85;;
66169;SDS011;66757;44.024;20.456;2023-05-07T01:43:13;13.27;;;7.70;;
66169;SDS011;66757;44.024;20.456;2023-05-07T01:45:38;16.10;;;8.90;;
66169;SDS011;66757;44.024;20.456;2023-05-07T01:48:05;19.52;;;10.30;;
66169;SDS011;66757;44.024;20.456;2023-05-07T01:50:32;18.55;;;11.30;;
66169;SDS011;66757;44.024;20.456;2023-05-07T01:52:58;25.25;;;14.38;;
66169;SDS011;66757;44.024;20.456;2023-05-07T01:55:24;25.98;;;14.07;;
66169;SDS011;66757;44.024;20.456;2023-05-07T01:57:50;23.00;;;12.95;;
66169;SDS011;66757;44.024;20.456;2023-05-07T02:00:15;25.73;;;13.02;;
66169;SDS011;66757;44.024;20.456;2023-05-07T02:02:42;24.00;;;12.32;;
66169;SDS011;66757;44.024;20.456;2023-05-07T02:05:08;22.33;;;10.95;;
66169;SDS011;66757;44.024;20.456;2023-05-07T02:07:33;31.63;;;16.67;;
66169;SDS011;66757;44.024;20.456;2023-05-07T02:09:59;25.85;;;13.20;;
66169;SDS011;66757;44.024;20.456;2023-05-07T02:12:24;27.85;;;14.50;;
66169;SDS011;66757;44.024;20.456;2023-05-07T02:14:50;24.92;;;14.15;;
66169;SDS011;66757;44.024;20.456;2023-05-07T02:17:15;19.35;;;9.85;;
66169;SDS011;66757;44.024;20.456;2023-05-07T02:19:41;10.10;;;5.57;;
66169;SDS011;66757;44.024;20.456;2023-05-07T02:22:06;9.85;;;5.80;;
66169;SDS011;66757;44.024;20.456;2023-05-07T02:24:32;6.35;;;4.70;;
66169;SDS011;66757;44.024;20.456;2023-05-07T02:26:58;6.88;;;4.90;;
66169;SDS011;66757;44.024;20.456;2023-05-07T02:29:23;7.93;;;5.35;;
66169;SDS011;66757;44.024;20.456;2023-05-07T02:31:49;8.20;;;4.95;;
66169;SDS011;66757;44.024;20.456;2023-05-07T02:34:16;8.20;;;5.63;;
66169;SDS011;66757;44.024;20.456;2023-05-07T02:36:42;9.18;;;5.65;;
66169;SDS011;66757;44.024;20.456;2023-05-07T02:39:07;11.48;;;6.45;;
66169;SDS011;66757;44.024;20.456;2023-05-07T02:41:33;10.63;;;5.75;;
66169;SDS011;66757;44.024;20.456;2023-05-07T02:43:58;8.77;;;4.70;;
66169;SDS011;66757;44.024;20.456;2023-05-07T02:46:24;8.65;;;4.72;;
66169;SDS011;66757;44.024;20.456;2023-05-07T02:48:49;8.73;;;5.38;;
66169;SDS011;66757;44.024;20.456;2023-05-07T02:51:16;10.45;;;6.03;;
66169;SDS011;66757;44.024;20.456;2023-05-07T02:53:46;17.65;;;8.20;;
66169;SDS011;66757;44.024;20.456;2023-05-07T02:56:12;10.30;;;6.45;;
66169;SDS011;66757;44.024;20.456;2023-05-07T02:58:37;11.38;;;6.40;;
66169;SDS011;66757;44.024;20.456;2023-05-07T03:01:07;9.13;;;6.10;;
66169;SDS011;66757;44.024;20.456;2023-05-07T03:03:33;12.27;;;6.22;;
66169;SDS011;66757;44.024;20.456;2023-05-07T03:06:00;5.97;;;4.10;;
66169;SDS011;66757;44.024;20.456;2023-05-07T03:08:26;5.07;;;3.88;;
66169;SDS011;66757;44.024;20.456;2023-05-07T03:10:51;9.30;;;4.38;;
66169;SDS011;66757;44.024;20.456;2023-05-07T03:13:17;5.32;;;4.00;;
66169;SDS011;66757;44.024;20.456;2023-05-07T03:15:42;7.22;;;4.35;;
66169;SDS011;66757;44.024;20.456;2023-05-07T03:18:08;5.15;;;3.95;;
66169;SDS011;66757;44.024;20.456;2023-05-07T03:20:33;5.95;;;4.13;;
66169;SDS011;66757;44.024;20.456;2023-05-07T03:22:59;5.63;;;4.25;;
66169;SDS011;66757;44.024;20.456;2023-05-07T03:25:25;5.15;;;4.10;;
66169;SDS011;66757;44.024;20.456;2023-05-07T03:27:50;8.43;;;4.90;;
66169;SDS011;66757;44.024;20.456;2023-05-07T03:30:16;11.18;;;5.25;;
66169;SDS011;66757;44.024;20.456;2023-05-07T03:32:43;7.32;;;4.97;;
66169;SDS011;66757;44.024;20.456;2023-05-07T03:35:09;6.18;;;4.90;;
66169;SDS011;66757;44.024;20.456;2023-05-07T03:37:35;10.98;;;7.15;;
66169;SDS011;66757;44.024;20.456;2023-05-07T03:40:00;11.93;;;6.38;;
66169;SDS011;66757;44.024;20.456;2023-05-07T03:42:26;8.43;;;5.70;;
66169;SDS011;66757;44.024;20.456;2023-05-07T03:44:51;6.32;;;4.90;;
66169;SDS011;66757;44.024;20.456;2023-05-07T03:47:17;9.93;;;4.35;;
66169;SDS011;66757;44.024;20.456;2023-05-07T03:49:43;7.47;;;4.60;;
66169;SDS011;66757;44.024;20.456;2023-05-07T03:52:08;5.95;;;4.65;;
66169;SDS011;66757;44.024;20.456;2023-05-07T03:54:34;7.55;;;4.80;;
66169;SDS011;66757;44.024;20.456;2023-05-07T03:56:59;4.45;;;3.60;;
66169;SDS011;66757;44.024;20.456;2023-05-07T03:59:25;7.95;;;4.82;;
66169;SDS011;66757;44.024;20.456;2023-05-07T04:01:51;8.70;;;4.70;;
66169;SDS011;66757;44.024;20.456;2023-05-07T04:04:17;7.13;;;4.28;;
66169;SDS011;66757;44.024;20.456;2023-05-07T04:06:42;7.20;;;4.50;;
66169;SDS011;66757;44.024;20.456;2023-05-07T04:09:08;7.40;;;4.28;;
66169;SDS011;66757;44.024;20.456;2023-05-07T04:11:34;9.60;;;4.20;;
66169;SDS011;66757;44.024;20.456;2023-05-07T04:14:00;6.72;;;4.10;;
66169;SDS011;66757;44.024;20.456;2023-05-07T04:16:26;5.55;;;4.25;;
66169;SDS011;66757;44.024;20.456;2023-05-07T04:18:51;7.03;;;4.40;;
66169;SDS011;66757;44.024;20.456;2023-05-07T04:21:17;8.27;;;4.20;;
66169;SDS011;66757;44.024;20.456;2023-05-07T04:23:43;8.27;;;4.38;;
66169;SDS011;66757;44.024;20.456;2023-05-07T04:26:09;4.55;;;4.07;;
66169;SDS011;66757;44.024;20.456;2023-05-07T04:28:35;7.82;;;4.60;;
66169;SDS011;66757;44.024;20.456;2023-05-07T04:31:01;5.45;;;4.13;;
66169;SDS011;66757;44.024;20.456;2023-05-07T04:33:26;5.55;;;3.90;;
66169;SDS011;66757;44.024;20.456;2023-05-07T04:35:53;4.95;;;3.88;;
66169;SDS011;66757;44.024;20.456;2023-05-07T04:38:18;7.00;;;3.53;;
66169;SDS011;66757;44.024;20.456;2023-05-07T04:40:44;5.38;;;3.90;;
66169;SDS011;66757;44.024;20.456;2023-05-07T04:43:11;4.57;;;3.28;;
66169;SDS011;66757;44.024;20.456;2023-05-07T04:45:39;5.45;;;3.85;;
66169;SDS011;66757;44.024;20.456;2023-05-07T04:48:06;5.00;;;3.60;;
66169;SDS011;66757;44.024;20.456;2023-05-07T04:50:32;6.75;;;3.20;;
66169;SDS011;66757;44.024;20.456;2023-05-07T04:52:58;6.32;;;3.97;;
66169;SDS011;66757;44.024;20.456;2023-05-07T04:55:23;6.95;;;3.75;;
66169;SDS011;66757;44.024;20.456;2023-05-07T04:57:49;7.45;;;4.40;;
66169;SDS011;66757;44.024;20.456;2023-05-07T05:00:15;9.05;;;4.28;;
66169;SDS011;66757;44.024;20.456;2023-05-07T05:02:41;5.45;;;3.88;;
66169;SDS011;66757;44.024;20.456;2023-05-07T05:05:08;5.28;;;3.92;;
66169;SDS011;66757;44.024;20.456;2023-05-07T05:07:33;6.18;;;4.32;;
66169;SDS011;66757;44.024;20.456;2023-05-07T05:09:59;9.57;;;4.70;;
66169;SDS011;66757;44.024;20.456;2023-05-07T05:12:24;5.60;;;4.22;;
66169;SDS011;66757;44.024;20.456;2023-05-07T05:14:50;7.85;;;3.95;;
66169;SDS011;66757;44.024;20.456;2023-05-07T05:17:16;4.15;;;3.58;;
66169;SDS011;66757;44.024;20.456;2023-05-07T05:19:41;8.45;;;4.25;;
66169;SDS011;66757;44.024;20.456;2023-05-07T05:22:06;6.03;;;3.83;;
66169;SDS011;66757;44.024;20.456;2023-05-07T05:24:32;7.88;;;4.03;;
66169;SDS011;66757;44.024;20.456;2023-05-07T05:26:57;8.93;;;4.53;;
66169;SDS011;66757;44.024;20.456;2023-05-07T05:29:26;7.50;;;4.18;;
66169;SDS011;66757;44.024;20.456;2023-05-07T05:31:51;6.68;;;4.57;;
66169;SDS011;66757;44.024;20.456;2023-05-07T05:34:16;8.73;;;5.03;;
66169;SDS011;66757;44.024;20.456;2023-05-07T05:36:44;8.57;;;4.60;;
66169;SDS011;66757;44.024;20.456;2023-05-07T05:39:10;6.80;;;3.92;;
66169;SDS011;66757;44.024;20.456;2023-05-07T05:41:35;8.25;;;4.05;;
66169;SDS011;66757;44.024;20.456;2023-05-07T05:44:01;4.28;;;3.67;;
66169;SDS011;66757;44.024;20.456;2023-05-07T05:46:26;7.72;;;4.30;;
66169;SDS011;66757;44.024;20.456;2023-05-07T05:48:52;8.32;;;4.90;;
66169;SDS011;66757;44.024;20.456;2023-05-07T05:51:17;6.32;;;3.78;;
66169;SDS011;66757;44.024;20.456;2023-05-07T05:53:43;6.38;;;4.10;;
66169;SDS011;66757;44.024;20.456;2023-05-07T05:56:08;6.28;;;4.20;;
66169;SDS011;66757;44.024;20.456;2023-05-07T05:58:34;4.97;;;3.70;;
66169;SDS011;66757;44.024;20.456;2023-05-07T06:00:59;6.63;;;3.97;;
66169;SDS011;66757;44.024;20.456;2023-05-07T06:03:25;4.93;;;3.80;;
66169;SDS011;66757;44.024;20.456;2023-05-07T06:05:51;8.02;;;4.32;;
66169;SDS011;66757;44.024;20.456;2023-05-07T06:08:16;7.43;;;4.10;;
66169;SDS011;66757;44.024;20.456;2023-05-07T06:10:42;6.10;;;3.80;;
66169;SDS011;66757;44.024;20.456;2023-05-07T06:13:07;6.63;;;3.35;;
66169;SDS011;66757;44.024;20.456;2023-05-07T06:15:33;4.10;;;2.83;;
66169;SDS011;66757;44.024;20.456;2023-05-07T06:17:58;4.63;;;2.72;;
66169;SDS011;66757;44.024;20.456;2023-05-07T06:20:24;4.05;;;2.10;;
66169;SDS011;66757;44.024;20.456;2023-05-07T06:22:49;6.18;;;1.85;;
66169;SDS011;66757;44.024;20.456;2023-05-07T06:25:15;2.88;;;1.95;;
66169;SDS011;66757;44.024;20.456;2023-05-07T06:27:40;4.35;;;1.88;;
66169;SDS011;66757;44.024;20.456;2023-05-07T06:30:06;3.35;;;2.00;;
66169;SDS011;66757;44.024;20.456;2023-05-07T06:32:32;2.47;;;1.92;;
66169;SDS011;66757;44.024;20.456;2023-05-07T06:34:57;2.17;;;1.48;;
66169;SDS011;66757;44.024;20.456;2023-05-07T06:37:23;4.38;;;1.52;;
66169;SDS011;66757;44.024;20.456;2023-05-07T06:39:48;2.33;;;1.30;;
66169;SDS011;66757;44.024;20.456;2023-05-07T06:42:14;1.98;;;1.13;;
66169;SDS011;66757;44.024;20.456;2023-05-07T06:44:40;3.60;;;1.50;;
66169;SDS011;66757;44.024;20.456;2023-05-07T06:47:05;2.00;;;1.33;;
66169;SDS011;66757;44.024;20.456;2023-05-07T06:49:31;3.28;;;1.40;;
66169;SDS011;66757;44.024;20.456;2023-05-07T06:51:56;2.25;;;1.27;;
66169;SDS011;66757;44.024;20.456;2023-05-07T06:54:23;1.73;;;0.98;;
66169;SDS011;66757;44.024;20.456;2023-05-07T06:56:48;3.30;;;1.20;;
66169;SDS011;66757;44.024;20.456;2023-05-07T06:59:14;3.50;;;1.20;;
66169;SDS011;66757;44.024;20.456;2023-05-07T07:01:40;2.75;;;1.15;;
66169;SDS011;66757;44.024;20.456;2023-05-07T07:04:05;2.03;;;1.40;;
66169;SDS011;66757;44.024;20.456;2023-05-07T07:06:32;3.40;;;1.50;;
66169;SDS011;66757;44.024;20.456;2023-05-07T07:08:58;1.40;;;0.70;;
66169;SDS011;66757;44.024;20.456;2023-05-07T07:11:24;2.47;;;0.98;;
66169;SDS011;66757;44.024;20.456;2023-05-07T07:13:49;1.67;;;0.95;;
66169;SDS011;66757;44.024;20.456;2023-05-07T07:16:15;3.50;;;1.58;;
66169;SDS011;66757;44.024;20.456;2023-05-07T07:18:41;2.45;;;1.17;;
66169;SDS011;66757;44.024;20.456;2023-05-07T07:21:06;2.13;;;1.10;;
66169;SDS011;66757;44.024;20.456;2023-05-07T07:23:32;4.20;;;1.42;;
66169;SDS011;66757;44.024;20.456;2023-05-07T07:25:57;3.28;;;1.20;;
66169;SDS011;66757;44.024;20.456;2023-05-07T07:28:23;1.67;;;1.05;;
66169;SDS011;66757;44.024;20.456;2023-05-07T07:30:48;1.75;;;1.08;;
66169;SDS011;66757;44.024;20.456;2023-05-07T07:33:14;1.80;;;1.17;;
66169;SDS011;66757;44.024;20.456;2023-05-07T07:35:40;2.42;;;1.10;;
66169;SDS011;66757;44.024;20.456;2023-05-07T07:38:05;4.88;;;0.80;;
66169;SDS011;66757;44.024;20.456;2023-05-07T07:40:34;3.75;;;1.05;;
66169;SDS011;66757;44.024;20.456;2023-05-07T07:43:00;2.45;;;1.15;;
66169;SDS011;66757;44.024;20.456;2023-05-07T07:45:26;1.88;;;0.93;;
66169;SDS011;66757;44.024;20.456;2023-05-07T07:47:53;1.35;;;0.80;;
66169;SDS011;66757;44.024;20.456;2023-05-07T07:50:18;5.03;;;0.75;;
66169;SDS011;66757;44.024;20.456;2023-05-07T07:52:44;2.20;;;0.90;;
66169;SDS011;66757;44.024;20.456;2023-05-07T07:55:10;3.67;;;1.02;;
66169;SDS011;66757;44.024;20.456;2023-05-07T07:57:35;4.00;;;1.10;;
66169;SDS011;66757;44.024;20.456;2023-05-07T08:00:01;2.83;;;0.90;;
66169;SDS011;66757;44.024;20.456;2023-05-07T08:02:27;1.10;;;0.68;;
66169;SDS011;66757;44.024;20.456;2023-05-07T08:04:53;1.65;;;1.25;;
66169;SDS011;66757;44.024;20.456;2023-05-07T08:07:18;1.67;;;1.00;;
66169;SDS011;66757;44.024;20.456;2023-05-07T08:09:46;2.53;;;0.80;;
66169;SDS011;66757;44.024;20.456;2023-05-07T08:12:12;3.20;;;1.02;;
66169;SDS011;66757;44.024;20.456;2023-05-07T08:14:39;3.13;;;1.05;;
66169;SDS011;66757;44.024;20.456;2023-05-07T08:17:04;2.25;;;1.10;;
66169;SDS011;66757;44.024;20.456;2023-05-07T08:19:30;2.45;;;0.73;;
66169;SDS011;66757;44.024;20.456;2023-05-07T08:21:55;2.22;;;1.00;;
66169;SDS011;66757;44.024;20.456;2023-05-07T08:24:21;4.72;;;1.30;;
66169;SDS011;66757;44.024;20.456;2023-05-07T08:26:46;2.00;;;1.00;;
66169;SDS011;66757;44.024;20.456;2023-05-07T08:29:12;1.10;;;0.55;;
66169;SDS011;66757;44.024;20.456;2023-05-07T08:31:37;3.63;;;0.80;;
66169;SDS011;66757;44.024;20.456;2023-05-07T08:34:04;3.00;;;0.80;;
66169;SDS011;66757;44.024;20.456;2023-05-07T08:36:31;2.15;;;0.80;;
66169;SDS011;66757;44.024;20.456;2023-05-07T08:38:57;1.38;;;0.70;;
66169;SDS011;66757;44.024;20.456;2023-05-07T08:41:23;2.55;;;0.90;;
66169;SDS011;66757;44.024;20.456;2023-05-07T08:43:49;1.35;;;0.77;;
66169;SDS011;66757;44.024;20.456;2023-05-07T08:46:21;1.17;;;0.82;;
66169;SDS011;66757;44.024;20.456;2023-05-07T08:48:48;2.70;;;0.73;;
66169;SDS011;66757;44.024;20.456;2023-05-07T08:51:16;1.98;;;0.60;;
66169;SDS011;66757;44.024;20.456;2023-05-07T08:53:44;2.78;;;0.70;;
66169;SDS011;66757;44.024;20.456;2023-05-07T08:56:10;1.67;;;0.50;;
66169;SDS011;66757;44.024;20.456;2023-05-07T08:58:37;1.00;;;0.50;;
66169;SDS011;66757;44.024;20.456;2023-05-07T09:01:03;2.08;;;0.73;;
66169;SDS011;66757;44.024;20.456;2023-05-07T09:03:32;3.97;;;0.85;;
66169;SDS011;66757;44.024;20.456;2023-05-07T09:05:58;1.67;;;0.60;;
66169;SDS011;66757;44.024;20.456;2023-05-07T09:08:24;1.70;;;0.70;;
66169;SDS011;66757;44.024;20.456;2023-05-07T09:10:52;2.88;;;0.65;;
66169;SDS011;66757;44.024;20.456;2023-05-07T09:13:18;1.40;;;0.55;;
66169;SDS011;66757;44.024;20.456;2023-05-07T09:15:44;2.13;;;0.60;;
66169;SDS011;66757;44.024;20.456;2023-05-07T09:18:09;1.13;;;0.52;;
66169;SDS011;66757;44.024;20.456;2023-05-07T09:20:38;2.92;;;0.68;;
66169;SDS011;66757;44.024;20.456;2023-05-07T09:23:04;2.13;;;0.63;;
66169;SDS011;66757;44.024;20.456;2023-05-07T09:25:30;3.70;;;0.73;;
66169;SDS011;66757;44.024;20.456;2023-05-07T09:27:56;2.70;;;0.80;;
66169;SDS011;66757;44.024;20.456;2023-05-07T09:30:22;1.10;;;0.43;;
66169;SDS011;66757;44.024;20.456;2023-05-07T09:32:47;1.08;;;0.40;;
66169;SDS011;66757;44.024;20.456;2023-05-07T09:35:16;1.00;;;0.40;;
66169;SDS011;66757;44.024;20.456;2023-05-07T09:37:42;1.20;;;0.50;;
66169;SDS011;66757;44.024;20.456;2023-05-07T09:40:08;2.05;;;0.50;;
66169;SDS011;66757;44.024;20.456;2023-05-07T09:42:45;1.55;;;0.80;;
66169;SDS011;66757;44.024;20.456;2023-05-07T09:45:12;0.82;;;0.50;;
66169;SDS011;66757;44.024;20.456;2023-05-07T09:47:38;3.15;;;0.43;;
66169;SDS011;66757;44.024;20.456;2023-05-07T09:50:07;3.42;;;0.70;;
66169;SDS011;66757;44.024;20.456;2023-05-07T09:52:35;3.28;;;0.70;;
66169;SDS011;66757;44.024;20.456;2023-05-07T09:55:01;2.13;;;0.70;;
66169;SDS011;66757;44.024;20.456;2023-05-07T09:57:28;2.25;;;0.68;;
66169;SDS011;66757;44.024;20.456;2023-05-07T09:59:55;2.28;;;0.73;;
66169;SDS011;66757;44.024;20.456;2023-05-07T10:02:22;1.15;;;0.57;;
66169;SDS011;66757;44.024;20.456;2023-05-07T10:04:50;0.93;;;0.40;;
66169;SDS011;66757;44.024;20.456;2023-05-07T10:07:16;1.35;;;0.50;;
66169;SDS011;66757;44.024;20.456;2023-05-07T10:09:42;3.45;;;0.40;;
66169;SDS011;66757;44.024;20.456;2023-05-07T10:12:09;1.20;;;0.57;;
66169;SDS011;66757;44.024;20.456;2023-05-07T10:14:35;0.90;;;0.40;;
66169;SDS011;66757;44.024;20.456;2023-05-07T10:17:02;1.00;;;0.60;;
66169;SDS011;66757;44.024;20.456;2023-05-07T10:19:27;1.42;;;0.35;;
66169;SDS011;66757;44.024;20.456;2023-05-07T10:21:55;2.33;;;0.60;;
66169;SDS011;66757;44.024;20.456;2023-05-07T10:24:29;1.15;;;0.40;;
66169;SDS011;66757;44.024;20.456;2023-05-07T10:26:57;1.00;;;0.40;;
66169;SDS011;66757;44.024;20.456;2023-05-07T10:34:59;3.05;;;0.80;;
66169;SDS011;66757;44.024;20.456;2023-05-07T10:37:28;1.88;;;0.40;;
66169;SDS011;66757;44.024;20.456;2023-05-07T10:39:54;1.48;;;0.50;;
66169;SDS011;66757;44.024;20.456;2023-05-07T10:42:19;1.13;;;0.57;;
66169;SDS011;66757;44.024;20.456;2023-05-07T10:44:45;0.93;;;0.50;;
66169;SDS011;66757;44.024;20.456;2023-05-07T10:47:12;3.30;;;0.60;;
66169;SDS011;66757;44.024;20.456;2023-05-07T10:52:14;3.70;;;0.82;;
66169;SDS011;66757;44.024;20.456;2023-05-07T10:54:44;1.98;;;0.40;;
66169;SDS011;66757;44.024;20.456;2023-05-07T11:00:00;0.70;;;0.50;;
66169;SDS011;66757;44.024;20.456;2023-05-07T11:05:41;0.70;;;0.40;;
66169;SDS011;66757;44.024;20.456;2023-05-07T11:08:07;1.25;;;0.35;;
66169;SDS011;66757;44.024;20.456;2023-05-07T11:10:50;1.00;;;0.40;;
66169;SDS011;66757;44.024;20.456;2023-05-07T11:13:18;4.40;;;0.33;;
66169;SDS011;66757;44.024;20.456;2023-05-07T11:16:04;3.85;;;0.40;;
66169;SDS011;66757;44.024;20.456;2023-05-07T11:18:48;2.00;;;0.45;;
66169;SDS011;66757;44.024;20.456;2023-05-07T11:21:25;1.52;;;0.60;;
66169;SDS011;66757;44.024;20.456;2023-05-07T11:23:56;1.67;;;0.68;;
66169;SDS011;66757;44.024;20.456;2023-05-07T11:26:22;1.95;;;0.30;;
66169;SDS011;66757;44.024;20.456;2023-05-07T11:28:48;1.25;;;0.30;;
66169;SDS011;66757;44.024;20.456;2023-05-07T11:31:14;1.08;;;0.30;;
66169;SDS011;66757;44.024;20.456;2023-05-07T11:33:49;2.13;;;0.52;;
66169;SDS011;66757;44.024;20.456;2023-05-07T11:36:15;2.83;;;0.40;;
66169;SDS011;66757;44.024;20.456;2023-05-07T11:38:41;0.80;;;0.30;;
66169;SDS011;66757;44.024;20.456;2023-05-07T11:41:07;1.75;;;0.40;;
66169;SDS011;66757;44.024;20.456;2023-05-07T11:43:33;1.63;;;0.40;;
66169;SDS011;66757;44.024;20.456;2023-05-07T11:46:08;5.28;;;0.40;;
66169;SDS011;66757;44.024;20.456;2023-05-07T11:48:35;1.90;;;0.30;;
66169;SDS011;66757;44.024;20.456;2023-05-07T11:51:01;1.27;;;0.30;;
66169;SDS011;66757;44.024;20.456;2023-05-07T11:53:34;1.63;;;0.50;;
66169;SDS011;66757;44.024;20.456;2023-05-07T11:56:05;1.13;;;0.30;;
66169;SDS011;66757;44.024;20.456;2023-05-07T12:01:23;1.90;;;0.40;;
66169;SDS011;66757;44.024;20.456;2023-05-07T12:03:49;0.93;;;0.30;;
66169;SDS011;66757;44.024;20.456;2023-05-07T12:06:16;1.77;;;0.50;;
66169;SDS011;66757;44.024;20.456;2023-05-07T12:08:42;0.85;;;0.32;;
66169;SDS011;66757;44.024;20.456;2023-05-07T12:11:22;1.65;;;0.50;;
66169;SDS011;66757;44.024;20.456;2023-05-07T12:13:48;1.25;;;0.40;;
66169;SDS011;66757;44.024;20.456;2023-05-07T12:16:13;3.20;;;0.40;;
66169;SDS011;66757;44.024;20.456;2023-05-07T12:18:39;1.92;;;0.50;;
66169;SDS011;66757;44.024;20.456;2023-05-07T12:21:05;0.70;;;0.40;;
66169;SDS011;66757;44.024;20.456;2023-05-07T12:23:31;2.00;;;0.40;;
66169;SDS011;66757;44.024;20.456;2023-05-07T12:25:58;1.10;;;0.50;;
66169;SDS011;66757;44.024;20.456;2023-05-07T12:28:24;1.15;;;0.55;;
66169;SDS011;66757;44.024;20.456;2023-05-07T12:30:50;4.00;;;0.38;;
66169;SDS011;66757;44.024;20.456;2023-05-07T12:33:17;2.65;;;0.30;;
66169;SDS011;66757;44.024;20.456;2023-05-07T12:35:44;0.70;;;0.40;;
66169;SDS011;66757;44.024;20.456;2023-05-07T12:38:14;1.58;;;0.40;;
66169;SDS011;66757;44.024;20.456;2023-05-07T12:40:45;1.10;;;0.30;;
66169;SDS011;66757;44.024;20.456;2023-05-07T12:43:24;2.30;;;0.30;;
66169;SDS011;66757;44.024;20.456;2023-05-07T12:45:51;1.35;;;0.50;;
66169;SDS011;66757;44.024;20.456;2023-05-07T12:48:17;2.42;;;0.35;;
66169;SDS011;66757;44.024;20.456;2023-05-07T12:50:44;2.30;;;0.45;;
66169;SDS011;66757;44.024;20.456;2023-05-07T12:53:10;0.80;;;0.30;;
66169;SDS011;66757;44.024;20.456;2023-05-07T12:55:44;1.10;;;0.40;;
66169;SDS011;66757;44.024;20.456;2023-05-07T12:58:33;1.30;;;0.70;;
66169;SDS011;66757;44.024;20.456;2023-05-07T13:00:59;1.88;;;0.30;;
66169;SDS011;66757;44.024;20.456;2023-05-07T13:03:33;2.47;;;0.60;;
66169;SDS011;66757;44.024;20.456;2023-05-07T13:06:01;0.85;;;0.40;;
66169;SDS011;66757;44.024;20.456;2023-05-07T13:11:09;1.33;;;0.60;;
66169;SDS011;66757;44.024;20.456;2023-05-07T13:13:35;2.83;;;0.30;;
66169;SDS011;66757;44.024;20.456;2023-05-07T13:16:02;0.77;;;0.30;;
66169;SDS011;66757;44.024;20.456;2023-05-07T13:18:29;1.25;;;0.60;;
66169;SDS011;66757;44.024;20.456;2023-05-07T13:20:56;3.35;;;2.40;;
66169;SDS011;66757;44.024;20.456;2023-05-07T13:23:22;1.95;;;0.40;;
66169;SDS011;66757;44.024;20.456;2023-05-07T13:25:48;2.45;;;0.50;;
66169;SDS011;66757;44.024;20.456;2023-05-07T13:28:14;0.93;;;0.20;;
66169;SDS011;66757;44.024;20.456;2023-05-07T13:30:41;1.25;;;0.30;;
66169;SDS011;66757;44.024;20.456;2023-05-07T13:33:06;1.67;;;0.43;;
66169;SDS011;66757;44.024;20.456;2023-05-07T13:35:32;0.73;;;0.25;;
66169;SDS011;66757;44.024;20.456;2023-05-07T13:37:59;1.48;;;0.30;;
66169;SDS011;66757;44.024;20.456;2023-05-07T13:40:25;0.55;;;0.20;;
66169;SDS011;66757;44.024;20.456;2023-05-07T13:42:51;1.00;;;0.30;;
66169;SDS011;66757;44.024;20.456;2023-05-07T13:45:19;1.58;;;0.30;;
66169;SDS011;66757;44.024;20.456;2023-05-07T13:47:45;1.42;;;0.40;;
66169;SDS011;66757;44.024;20.456;2023-05-07T13:50:12;2.67;;;0.30;;
66169;SDS011;66757;44.024;20.456;2023-05-07T13:52:42;0.70;;;0.30;;
66169;SDS011;66757;44.024;20.456;2023-05-07T13:57:42;0.95;;;0.30;;
66169;SDS011;66757;44.024;20.456;2023-05-07T14:00:07;3.22;;;0.30;;
66169;SDS011;66757;44.024;20.456;2023-05-07T14:02:34;3.00;;;0.63;;
66169;SDS011;66757;44.024;20.456;2023-05-07T14:04:59;1.52;;;0.20;;
66169;SDS011;66757;44.024;20.456;2023-05-07T14:07:26;2.40;;;0.40;;
66169;SDS011;66757;44.024;20.456;2023-05-07T14:09:52;1.08;;;0.20;;
66169;SDS011;66757;44.024;20.456;2023-05-07T14:12:18;1.92;;;0.30;;
66169;SDS011;66757;44.024;20.456;2023-05-07T14:14:43;0.63;;;0.30;;
66169;SDS011;66757;44.024;20.456;2023-05-07T14:17:10;1.98;;;0.30;;
66169;SDS011;66757;44.024;20.456;2023-05-07T14:19:35;1.85;;;0.30;;
66169;SDS011;66757;44.024;20.456;2023-05-07T14:22:01;1.83;;;0.30;;
66169;SDS011;66757;44.024;20.456;2023-05-07T14:24:27;6.25;;;1.17;;
66169;SDS011;66757;44.024;20.456;2023-05-07T14:26:52;2.88;;;0.40;;
66169;SDS011;66757;44.024;20.456;2023-05-07T14:29:18;1.02;;;0.30;;
66169;SDS011;66757;44.024;20.456;2023-05-07T14:31:44;0.95;;;0.20;;
66169;SDS011;66757;44.024;20.456;2023-05-07T14:34:10;1.50;;;0.30;;
66169;SDS011;66757;44.024;20.456;2023-05-07T14:36:35;3.92;;;0.30;;
66169;SDS011;66757;44.024;20.456;2023-05-07T14:39:02;1.58;;;0.30;;
66169;SDS011;66757;44.024;20.456;2023-05-07T14:41:27;0.98;;;0.22;;
66169;SDS011;66757;44.024;20.456;2023-05-07T14:43:53;0.50;;;0.20;;
66169;SDS011;66757;44.024;20.456;2023-05-07T14:46:18;1.63;;;0.30;;
66169;SDS011;66757;44.024;20.456;2023-05-07T14:48:45;1.60;;;0.20;;